createdAt,value
2018-08-07T00:00:04.825Z,1006.78
2018-08-07T00:01:04.826Z,1006.78
2018-08-07T00:02:04.827Z,1006.78
2018-08-07T00:03:04.827Z,1006.78
2018-08-07T00:04:04.828Z,1006.75
2018-08-07T00:05:04.828Z,1006.76
2018-08-07T00:06:04.830Z,1006.74
2018-08-07T00:07:04.830Z,1006.71
2018-08-07T00:08:04.833Z,1006.70
2018-08-07T00:09:04.831Z,1006.73
2018-08-07T00:10:04.832Z,1006.71
2018-08-07T00:11:04.832Z,1006.72
2018-08-07T00:12:04.831Z,1006.67
2018-08-07T00:13:04.833Z,1006.62
2018-08-07T00:14:04.833Z,1006.66
2018-08-07T00:15:04.833Z,1006.53
2018-08-07T00:16:04.836Z,1006.60
2018-08-07T00:17:04.835Z,1006.61
2018-08-07T00:18:04.834Z,1006.58
2018-08-07T00:19:04.834Z,1006.56
2018-08-07T00:20:04.835Z,1006.55
2018-08-07T00:21:04.839Z,1006.54
2018-08-07T00:22:04.872Z,1006.52
2018-08-07T00:23:04.837Z,1006.50
2018-08-07T00:24:04.837Z,1006.47
2018-08-07T00:25:04.838Z,1006.48
2018-08-07T00:26:04.838Z,1006.48
2018-08-07T00:27:04.840Z,1006.48
2018-08-07T00:28:04.839Z,1006.44
2018-08-07T00:29:04.839Z,1006.38
2018-08-07T00:30:04.841Z,1006.42
2018-08-07T00:31:04.839Z,1006.41
2018-08-07T00:32:04.839Z,1006.42
2018-08-07T00:33:04.839Z,1006.39
2018-08-07T00:34:04.841Z,1006.38
2018-08-07T00:35:04.841Z,1006.35
2018-08-07T00:36:04.841Z,1006.38
2018-08-07T00:37:04.841Z,1006.39
2018-08-07T00:38:04.842Z,1006.42
2018-08-07T00:39:04.844Z,1006.41
2018-08-07T00:40:04.841Z,1006.48
2018-08-07T00:41:04.842Z,1006.36
2018-08-07T00:42:04.844Z,1006.41
2018-08-07T00:43:04.843Z,1006.38
2018-08-07T00:44:04.841Z,1006.44
2018-08-07T00:45:04.842Z,1006.37
2018-08-07T00:46:04.842Z,1006.36
2018-08-07T00:47:04.843Z,1006.36
2018-08-07T00:48:04.842Z,1006.37
2018-08-07T00:49:04.843Z,1006.35
2018-08-07T00:50:04.874Z,1006.39
2018-08-07T00:51:04.844Z,1006.32
2018-08-07T00:52:04.844Z,1006.33
2018-08-07T00:53:04.844Z,1006.34
2018-08-07T00:54:04.844Z,1006.31
2018-08-07T00:55:04.843Z,1006.30
2018-08-07T00:56:04.844Z,1006.28
2018-08-07T00:57:04.845Z,1006.31
2018-08-07T00:58:04.844Z,1006.26
2018-08-07T00:59:04.845Z,1006.26
2018-08-07T01:00:04.850Z,1006.25
2018-08-07T01:01:04.844Z,1006.21
2018-08-07T01:02:04.848Z,1006.24
2018-08-07T01:03:04.844Z,1006.25
2018-08-07T01:04:04.844Z,1006.24
2018-08-07T01:05:04.845Z,1006.20
2018-08-07T01:06:04.844Z,1006.22
2018-08-07T01:07:04.848Z,1006.21
2018-08-07T01:08:04.844Z,1006.22
2018-08-07T01:09:04.844Z,1006.16
2018-08-07T01:10:04.844Z,1006.15
2018-08-07T01:11:04.845Z,1006.22
2018-08-07T01:12:04.843Z,1006.14
2018-08-07T01:13:04.844Z,1006.20
2018-08-07T01:14:04.843Z,1006.22
2018-08-07T01:15:04.846Z,1006.22
2018-08-07T01:16:04.843Z,1006.22
2018-08-07T01:17:04.843Z,1006.20
2018-08-07T01:18:04.842Z,1006.20
2018-08-07T01:19:04.844Z,1006.20
2018-08-07T01:20:04.842Z,1006.25
2018-08-07T01:21:04.843Z,1006.23
2018-08-07T01:22:04.843Z,1006.24
2018-08-07T01:23:04.843Z,1006.20
2018-08-07T01:24:04.842Z,1006.22
2018-08-07T01:25:04.842Z,1006.19
2018-08-07T01:26:04.848Z,1006.20
2018-08-07T01:27:04.903Z,1006.21
2018-08-07T01:28:04.841Z,1006.19
2018-08-07T01:29:04.841Z,1006.19
2018-08-07T01:30:04.844Z,1006.19
2018-08-07T01:31:04.841Z,1006.14
2018-08-07T01:32:04.853Z,1006.15
2018-08-07T01:33:04.841Z,1006.14
2018-08-07T01:34:04.850Z,1006.19
2018-08-07T01:35:04.841Z,1006.11
2018-08-07T01:36:04.839Z,1006.12
2018-08-07T01:37:04.838Z,1006.14
2018-08-07T01:38:04.842Z,1006.09
2018-08-07T01:39:04.839Z,1006.10
2018-08-07T01:40:04.837Z,1006.14
2018-08-07T01:41:04.838Z,1006.14
2018-08-07T01:42:04.837Z,1006.13
2018-08-07T01:43:04.837Z,1006.18
2018-08-07T01:44:04.837Z,1006.15
2018-08-07T01:45:04.837Z,1006.18
2018-08-07T01:46:04.836Z,1006.17
2018-08-07T01:47:04.838Z,1006.18
2018-08-07T01:48:04.835Z,1006.19
2018-08-07T01:49:04.835Z,1006.20
2018-08-07T01:50:04.835Z,1006.20
2018-08-07T01:51:04.834Z,1006.23
2018-08-07T01:52:04.836Z,1006.21
2018-08-07T01:53:04.833Z,1006.19
2018-08-07T01:54:04.834Z,1006.26
2018-08-07T01:55:04.833Z,1006.29
2018-08-07T01:56:04.831Z,1006.29
2018-08-07T01:57:04.830Z,1006.24
2018-08-07T01:58:04.830Z,1006.26
2018-08-07T01:59:04.832Z,1006.30
2018-08-07T02:00:04.828Z,1006.24
2018-08-07T02:01:04.829Z,1006.28
2018-08-07T02:02:04.830Z,1006.29
2018-08-07T02:03:04.834Z,1006.30
2018-08-07T02:04:04.828Z,1006.33
2018-08-07T02:05:04.828Z,1006.31
2018-08-07T02:06:04.828Z,1006.29
2018-08-07T02:07:04.828Z,1006.30
2018-08-07T02:08:04.826Z,1006.29
2018-08-07T02:09:04.826Z,1006.26
2018-08-07T02:10:04.828Z,1006.27
2018-08-07T02:11:04.826Z,1006.27
2018-08-07T02:12:04.823Z,1006.24
2018-08-07T02:13:04.823Z,1006.25
2018-08-07T02:14:04.824Z,1006.23
2018-08-07T02:15:04.823Z,1006.24
2018-08-07T02:16:04.822Z,1006.16
2018-08-07T02:17:04.821Z,1006.16
2018-08-07T02:18:04.821Z,1006.18
2018-08-07T02:19:04.820Z,1006.16
2018-08-07T02:20:04.820Z,1006.15
2018-08-07T02:21:04.820Z,1006.12
2018-08-07T02:22:04.819Z,1006.12
2018-08-07T02:23:04.818Z,1006.08
2018-08-07T02:24:04.817Z,1006.10
2018-08-07T02:25:04.816Z,1006.07
2018-08-07T02:26:04.816Z,1006.06
2018-08-07T02:27:04.816Z,1006.08
2018-08-07T02:28:04.822Z,1006.06
2018-08-07T02:29:04.865Z,1006.00
2018-08-07T02:30:04.814Z,1006.05
2018-08-07T02:31:04.813Z,1006.06
2018-08-07T02:32:04.812Z,1006.02
2018-08-07T02:33:04.811Z,1005.99
2018-08-07T02:34:04.811Z,1006.05
2018-08-07T02:35:04.817Z,1006.01
2018-08-07T02:36:04.809Z,1006.01
2018-08-07T02:37:04.808Z,1006.02
2018-08-07T02:38:04.808Z,1006.03
2018-08-07T02:39:04.808Z,1006.01
2018-08-07T02:40:04.807Z,1005.98
2018-08-07T02:41:04.807Z,1005.99
2018-08-07T02:42:04.805Z,1005.98
2018-08-07T02:43:04.807Z,1005.99
2018-08-07T02:44:04.804Z,1005.97
2018-08-07T02:45:04.803Z,1005.99
2018-08-07T02:46:04.803Z,1005.99
2018-08-07T02:47:04.803Z,1005.96
2018-08-07T02:48:04.804Z,1005.94
2018-08-07T02:49:04.801Z,1005.96
2018-08-07T02:50:04.800Z,1005.96
2018-08-07T02:51:04.800Z,1005.93
2018-08-07T02:52:04.802Z,1005.95
2018-08-07T02:53:04.798Z,1005.97
2018-08-07T02:54:04.798Z,1005.93
2018-08-07T02:55:04.798Z,1005.96
2018-08-07T02:56:04.796Z,1005.94
2018-08-07T02:57:04.794Z,1005.93
2018-08-07T02:58:04.797Z,1005.89
2018-08-07T02:59:04.796Z,1005.88
2018-08-07T03:00:04.794Z,1005.87
2018-08-07T03:01:04.793Z,1005.86
2018-08-07T03:02:04.792Z,1005.86
2018-08-07T03:03:04.792Z,1005.84
2018-08-07T03:04:04.790Z,1005.90
2018-08-07T03:05:04.790Z,1005.89
2018-08-07T03:06:04.790Z,1005.86
2018-08-07T03:07:04.791Z,1005.82
2018-08-07T03:08:04.789Z,1005.86
2018-08-07T03:09:04.787Z,1005.88
2018-08-07T03:10:04.788Z,1005.86
2018-08-07T03:11:04.787Z,1005.86
2018-08-07T03:12:04.785Z,1005.87
2018-08-07T03:13:04.784Z,1005.88
2018-08-07T03:14:04.784Z,1005.95
2018-08-07T03:15:04.783Z,1005.89
2018-08-07T03:16:04.783Z,1005.89
2018-08-07T03:17:04.782Z,1005.85
2018-08-07T03:18:04.781Z,1005.82
2018-08-07T03:19:04.781Z,1005.87
2018-08-07T03:20:04.809Z,1005.92
2018-08-07T03:21:04.783Z,1005.91
2018-08-07T03:22:04.779Z,1005.85
2018-08-07T03:23:04.779Z,1005.86
2018-08-07T03:24:04.779Z,1005.86
2018-08-07T03:25:04.775Z,1005.86
2018-08-07T03:26:04.777Z,1005.91
2018-08-07T03:27:04.776Z,1005.85
2018-08-07T03:28:04.773Z,1005.89
2018-08-07T03:29:04.772Z,1005.87
2018-08-07T03:30:04.772Z,1005.91
2018-08-07T03:31:04.771Z,1005.92
2018-08-07T03:32:04.774Z,1005.89
2018-08-07T03:33:04.770Z,1005.93
2018-08-07T03:34:04.769Z,1005.91
2018-08-07T03:35:04.769Z,1005.95
2018-08-07T03:36:04.768Z,1005.90
2018-08-07T03:37:04.767Z,1005.92
2018-08-07T03:38:04.767Z,1005.91
2018-08-07T03:39:04.770Z,1005.93
2018-08-07T03:40:04.765Z,1005.94
2018-08-07T03:41:04.764Z,1005.92
2018-08-07T03:42:04.763Z,1005.88
2018-08-07T03:43:04.763Z,1005.92
2018-08-07T03:44:04.762Z,1005.87
2018-08-07T03:45:04.765Z,1005.92
2018-08-07T03:46:04.763Z,1005.88
2018-08-07T03:47:04.762Z,1005.91
2018-08-07T03:48:04.761Z,1005.92
2018-08-07T03:49:04.760Z,1005.93
2018-08-07T03:50:04.763Z,1005.94
2018-08-07T03:51:04.760Z,1005.99
2018-08-07T03:52:04.759Z,1005.96
2018-08-07T03:53:04.814Z,1005.97
2018-08-07T03:54:04.757Z,1005.96
2018-08-07T03:55:04.757Z,1005.98
2018-08-07T03:56:04.756Z,1005.98
2018-08-07T03:57:04.754Z,1006.00
2018-08-07T03:58:04.754Z,1006.04
2018-08-07T03:59:04.802Z,1006.06
2018-08-07T04:00:04.754Z,1006.03
2018-08-07T04:01:04.753Z,1006.01
2018-08-07T04:02:04.752Z,1006.00
2018-08-07T04:03:04.752Z,1005.99
2018-08-07T04:04:04.754Z,1005.99
2018-08-07T04:05:04.789Z,1005.99
2018-08-07T04:06:04.751Z,1006.02
2018-08-07T04:07:04.750Z,1006.04
2018-08-07T04:08:04.749Z,1006.08
2018-08-07T04:09:04.748Z,1006.05
2018-08-07T04:10:04.749Z,1006.06
2018-08-07T04:11:04.748Z,1006.07
2018-08-07T04:12:04.746Z,1006.02
2018-08-07T04:13:04.746Z,1006.03
2018-08-07T04:14:04.744Z,1006.02
2018-08-07T04:15:04.746Z,1006.05
2018-08-07T04:16:04.743Z,1006.07
2018-08-07T04:17:04.743Z,1006.04
2018-08-07T04:18:04.743Z,1006.06
2018-08-07T04:19:04.743Z,1006.13
2018-08-07T04:20:04.740Z,1006.09
2018-08-07T04:21:04.744Z,1006.10
2018-08-07T04:22:04.741Z,1006.13
2018-08-07T04:23:04.740Z,1006.10
2018-08-07T04:24:04.738Z,1006.08
2018-08-07T04:25:04.738Z,1006.11
2018-08-07T04:26:04.773Z,1006.12
2018-08-07T04:27:04.737Z,1006.10
2018-08-07T04:28:04.737Z,1006.12
2018-08-07T04:29:04.737Z,1006.15
2018-08-07T04:30:04.737Z,1006.08
2018-08-07T04:31:04.736Z,1006.15
2018-08-07T04:32:04.735Z,1006.13
2018-08-07T04:33:04.735Z,1006.11
2018-08-07T04:34:04.735Z,1006.13
2018-08-07T04:35:04.734Z,1006.12
2018-08-07T04:36:04.732Z,1006.07
2018-08-07T04:37:04.732Z,1006.09
2018-08-07T04:38:04.733Z,1006.10
2018-08-07T04:39:04.733Z,1006.04
2018-08-07T04:40:04.730Z,1006.05
2018-08-07T04:41:04.730Z,1006.08
2018-08-07T04:42:04.731Z,1006.07
2018-08-07T04:43:04.731Z,1006.11
2018-08-07T04:44:04.732Z,1006.09
2018-08-07T04:45:04.730Z,1006.14
2018-08-07T04:46:04.733Z,1006.13
2018-08-07T04:47:04.729Z,1006.11
2018-08-07T04:48:04.730Z,1006.10
2018-08-07T04:49:04.729Z,1006.10
2018-08-07T04:50:04.729Z,1006.13
2018-08-07T04:51:04.729Z,1006.14
2018-08-07T04:52:04.728Z,1006.17
2018-08-07T04:53:04.729Z,1006.23
2018-08-07T04:54:04.728Z,1006.20
2018-08-07T04:55:04.730Z,1006.49
2018-08-07T04:56:04.729Z,1006.51
2018-08-07T04:57:04.731Z,1006.53
2018-08-07T04:58:04.798Z,1006.56
2018-08-07T04:59:04.731Z,1006.61
2018-08-07T05:00:04.733Z,1006.61
2018-08-07T05:01:04.734Z,1006.67
2018-08-07T05:02:04.740Z,1006.64
2018-08-07T05:03:04.736Z,1006.69
2018-08-07T05:04:04.738Z,1006.72
2018-08-07T05:05:04.739Z,1006.78
2018-08-07T05:06:04.741Z,1006.78
2018-08-07T05:07:04.742Z,1006.80
2018-08-07T05:08:04.742Z,1006.85
2018-08-07T05:09:04.746Z,1006.84
2018-08-07T05:10:04.748Z,1006.91
2018-08-07T05:11:04.753Z,1006.92
2018-08-07T05:12:04.752Z,1006.98
2018-08-07T05:13:04.756Z,1006.97
2018-08-07T05:14:04.760Z,1006.96
2018-08-07T05:15:04.762Z,1006.99
2018-08-07T05:16:04.765Z,1007.04
2018-08-07T05:17:04.769Z,1007.02
2018-08-07T05:18:04.772Z,1007.03
2018-08-07T05:19:04.776Z,1007.07
2018-08-07T05:20:04.779Z,1007.09
2018-08-07T05:21:04.781Z,1007.11
2018-08-07T05:22:04.786Z,1007.14
2018-08-07T05:23:04.790Z,1007.10
2018-08-07T05:24:04.800Z,1007.16
2018-08-07T05:25:04.798Z,1007.20
2018-08-07T05:26:04.803Z,1007.24
2018-08-07T05:27:04.808Z,1007.25
2018-08-07T05:28:04.811Z,1007.24
2018-08-07T05:29:04.817Z,1007.29
2018-08-07T05:30:04.820Z,1007.27
2018-08-07T05:31:04.829Z,1007.33
2018-08-07T05:32:04.827Z,1007.32
2018-08-07T05:33:04.833Z,1007.32
2018-08-07T05:34:04.838Z,1007.33
2018-08-07T05:35:04.849Z,1007.33
2018-08-07T05:36:04.848Z,1007.37
2018-08-07T05:37:04.854Z,1007.35
2018-08-07T05:38:04.857Z,1007.40
2018-08-07T05:39:04.863Z,1007.44
2018-08-07T05:40:04.868Z,1007.37
2018-08-07T05:41:04.874Z,1007.40
2018-08-07T05:42:04.878Z,1007.43
2018-08-07T05:43:04.885Z,1007.44
2018-08-07T05:44:04.889Z,1007.51
2018-08-07T05:45:04.896Z,1007.48
2018-08-07T05:46:04.901Z,1007.52
2018-08-07T05:47:04.907Z,1007.52
2018-08-07T05:48:04.912Z,1007.58
2018-08-07T05:49:04.917Z,1007.59
2018-08-07T05:50:05.088Z,1007.61
2018-08-07T05:51:05.446Z,1007.61
2018-08-07T05:52:04.940Z,1007.64
2018-08-07T05:53:04.946Z,1007.61
2018-08-07T05:54:04.950Z,1007.62
2018-08-07T05:55:05.010Z,1007.61
2018-08-07T05:56:04.963Z,1007.68
2018-08-07T05:57:04.970Z,1007.67
2018-08-07T05:58:05.044Z,1007.72
2018-08-07T05:59:04.985Z,1007.74
2018-08-07T06:00:04.994Z,1007.77
2018-08-07T06:01:05.062Z,1007.76
2018-08-07T06:02:05.007Z,1007.74
2018-08-07T06:03:05.020Z,1007.76
2018-08-07T06:04:05.021Z,1007.80
2018-08-07T06:05:05.029Z,1007.74
2018-08-07T06:06:05.039Z,1007.76
2018-08-07T06:07:05.045Z,1007.82
2018-08-07T06:08:05.054Z,1007.79
2018-08-07T06:09:05.063Z,1007.81
2018-08-07T06:10:05.071Z,1007.85
2018-08-07T06:11:05.079Z,1007.83
2018-08-07T06:12:05.089Z,1007.84
2018-08-07T06:13:05.098Z,1007.86
2018-08-07T06:14:05.107Z,1007.90
2018-08-07T06:15:05.118Z,1007.87
2018-08-07T06:16:05.127Z,1007.87
2018-08-07T06:17:05.135Z,1007.93
2018-08-07T06:18:05.144Z,1007.92
2018-08-07T06:19:05.190Z,1007.94
2018-08-07T06:20:05.164Z,1008.01
2018-08-07T06:21:05.178Z,1007.99
2018-08-07T06:22:05.185Z,1007.99
2018-08-07T06:23:05.195Z,1007.99
2018-08-07T06:24:05.207Z,1008.01
2018-08-07T06:25:05.218Z,1008.01
2018-08-07T06:26:05.230Z,1008.06
2018-08-07T06:27:05.240Z,1008.05
2018-08-07T06:28:05.250Z,1008.07
2018-08-07T06:29:05.263Z,1008.05
2018-08-07T06:30:05.283Z,1008.07
2018-08-07T06:31:05.285Z,1008.10
2018-08-07T06:32:05.296Z,1008.09
2018-08-07T06:33:05.308Z,1008.07
2018-08-07T06:34:05.320Z,1008.10
2018-08-07T06:35:05.332Z,1008.15
2018-08-07T06:36:05.344Z,1008.14
2018-08-07T06:37:05.359Z,1008.15
2018-08-07T06:38:05.370Z,1008.15
2018-08-07T06:39:05.383Z,1008.15
2018-08-07T06:40:05.393Z,1008.19
2018-08-07T06:41:05.407Z,1008.17
2018-08-07T06:42:05.420Z,1008.19
2018-08-07T06:43:05.568Z,1008.22
2018-08-07T06:44:05.447Z,1008.18
2018-08-07T06:45:05.457Z,1008.21
2018-08-07T06:46:05.470Z,1008.19
2018-08-07T06:47:05.485Z,1008.19
2018-08-07T06:48:05.557Z,1008.17
2018-08-07T06:49:05.512Z,1008.18
2018-08-07T06:50:05.591Z,1008.20
2018-08-07T06:51:05.537Z,1008.16
2018-08-07T06:52:05.549Z,1008.18
2018-08-07T06:53:05.563Z,1008.20
2018-08-07T06:54:05.576Z,1008.23
2018-08-07T06:55:05.590Z,1008.18
2018-08-07T06:56:05.602Z,1008.23
2018-08-07T06:57:05.623Z,1008.22
2018-08-07T06:58:05.629Z,1008.22
2018-08-07T06:59:05.643Z,1008.24
2018-08-07T07:00:05.655Z,1008.23
2018-08-07T07:01:05.669Z,1008.22
2018-08-07T07:02:05.683Z,1008.22
2018-08-07T07:03:05.698Z,1008.17
2018-08-07T07:04:05.709Z,1008.16
2018-08-07T07:05:05.724Z,1008.16
2018-08-07T07:06:05.737Z,1008.17
2018-08-07T07:07:05.751Z,1008.13
2018-08-07T07:08:05.765Z,1008.11
2018-08-07T07:09:05.779Z,1008.16
2018-08-07T07:10:05.794Z,1008.16
2018-08-07T07:11:05.808Z,1008.18
2018-08-07T07:12:05.822Z,1008.22
2018-08-07T07:13:05.836Z,1008.18
2018-08-07T07:14:05.849Z,1008.19
2018-08-07T07:15:05.869Z,1008.16
2018-08-07T07:16:05.881Z,1008.10
2018-08-07T07:17:05.892Z,1008.12
2018-08-07T07:18:05.907Z,1008.18
2018-08-07T07:19:05.921Z,1008.18
2018-08-07T07:20:05.936Z,1008.15
2018-08-07T07:21:05.951Z,1008.15
2018-08-07T07:22:05.964Z,1008.11
2018-08-07T07:23:05.980Z,1008.12
2018-08-07T07:24:05.997Z,1008.14
2018-08-07T07:25:06.012Z,1008.13
2018-08-07T07:26:06.025Z,1008.13
2018-08-07T07:27:06.041Z,1008.16
2018-08-07T07:28:06.055Z,1008.14
2018-08-07T07:29:06.074Z,1008.14
2018-08-07T07:30:06.089Z,1008.16
2018-08-07T07:31:06.103Z,1008.16
2018-08-07T07:32:06.116Z,1008.15
2018-08-07T07:33:06.131Z,1008.18
2018-08-07T07:34:06.210Z,1008.21
2018-08-07T07:35:06.163Z,1008.13
2018-08-07T07:36:06.178Z,1008.21
2018-08-07T07:37:06.194Z,1008.14
2018-08-07T07:38:06.210Z,1008.14
2018-08-07T07:39:06.231Z,1008.15
2018-08-07T07:40:06.250Z,1008.17
2018-08-07T07:41:06.262Z,1008.12
2018-08-07T07:42:06.286Z,1008.13
2018-08-07T07:43:06.299Z,1008.13
2018-08-07T07:44:06.317Z,1008.15
2018-08-07T07:45:06.333Z,1008.08
2018-08-07T07:46:06.355Z,1008.13
2018-08-07T07:47:06.405Z,1008.13
2018-08-07T07:48:06.375Z,1008.13
2018-08-07T07:49:06.390Z,1008.10
2018-08-07T07:50:06.416Z,1008.11
2018-08-07T07:51:06.428Z,1008.06
2018-08-07T07:52:06.442Z,1008.06
2018-08-07T07:53:06.456Z,1008.02
2018-08-07T07:54:06.514Z,1008.06
2018-08-07T07:55:06.494Z,1008.07
2018-08-07T07:56:06.508Z,1008.03
2018-08-07T07:57:06.526Z,1008.06
2018-08-07T07:58:06.538Z,1008.07
2018-08-07T07:59:06.556Z,1008.02
2018-08-07T08:00:06.572Z,1008.03
2018-08-07T08:01:06.590Z,1008.01
2018-08-07T08:02:06.612Z,1007.97
2018-08-07T08:03:06.626Z,1008.02
2018-08-07T08:04:06.645Z,1008.04
2018-08-07T08:05:06.709Z,1008.03
2018-08-07T08:06:06.729Z,1008.01
2018-08-07T08:07:06.692Z,1008.00
2018-08-07T08:08:06.714Z,1008.01
2018-08-07T08:09:06.731Z,1008.02
2018-08-07T08:10:06.744Z,1008.03
2018-08-07T08:11:06.818Z,1008.04
2018-08-07T08:12:06.780Z,1008.06
2018-08-07T08:13:06.800Z,1008.02
2018-08-07T08:14:06.820Z,1008.05
2018-08-07T08:15:06.839Z,1008.08
2018-08-07T08:16:06.859Z,1008.04
2018-08-07T08:17:06.876Z,1008.05
2018-08-07T08:18:06.889Z,1008.05
2018-08-07T08:19:06.908Z,1008.04
2018-08-07T08:20:06.945Z,1008.05
2018-08-07T08:21:06.946Z,1008.07
2018-08-07T08:22:06.973Z,1008.04
2018-08-07T08:23:06.989Z,1008.03
2018-08-07T08:24:07.003Z,1008.02
2018-08-07T08:25:07.021Z,1008.04
2018-08-07T08:26:07.045Z,1008.02
2018-08-07T08:27:07.066Z,1008.04
2018-08-07T08:28:07.087Z,1008.04
2018-08-07T08:29:07.129Z,1008.04
2018-08-07T08:30:07.154Z,1008.04
2018-08-07T08:31:07.139Z,1008.03
2018-08-07T08:32:07.159Z,1008.01
2018-08-07T08:33:07.179Z,1008.02
2018-08-07T08:34:07.204Z,1008.02
2018-08-07T08:35:07.318Z,1008.01
2018-08-07T08:36:07.244Z,1007.99
2018-08-07T08:37:07.271Z,1007.95
2018-08-07T08:38:07.317Z,1008.00
2018-08-07T08:39:07.300Z,1007.97
2018-08-07T08:40:07.324Z,1007.99
2018-08-07T08:41:07.346Z,1007.98
2018-08-07T08:42:07.366Z,1007.95
2018-08-07T08:43:07.383Z,1007.97
2018-08-07T08:44:07.405Z,1007.94
2018-08-07T08:45:07.425Z,1007.93
2018-08-07T08:46:07.452Z,1007.89
2018-08-07T08:47:07.474Z,1007.89
2018-08-07T08:48:07.547Z,1007.83
2018-08-07T08:49:07.518Z,1007.85
2018-08-07T08:50:07.533Z,1007.80
2018-08-07T08:51:07.553Z,1007.86
2018-08-07T08:52:07.572Z,1007.82
2018-08-07T08:53:07.592Z,1007.84
2018-08-07T08:54:07.653Z,1007.81
2018-08-07T08:55:07.639Z,1007.78
2018-08-07T08:56:07.654Z,1007.77
2018-08-07T08:57:07.674Z,1007.78
2018-08-07T08:58:07.700Z,1007.76
2018-08-07T08:59:07.720Z,1007.73
2018-08-07T09:00:07.753Z,1007.76
2018-08-07T09:01:07.764Z,1007.74
2018-08-07T09:02:07.782Z,1007.72
2018-08-07T09:03:07.801Z,1007.71
2018-08-07T09:04:07.823Z,1007.71
2018-08-07T09:05:07.849Z,1007.69
2018-08-07T09:06:07.870Z,1007.69
2018-08-07T09:07:07.891Z,1007.66
2018-08-07T09:08:07.911Z,1007.67
2018-08-07T09:09:07.934Z,1007.61
2018-08-07T09:10:07.954Z,1007.61
2018-08-07T09:11:07.972Z,1007.63
2018-08-07T09:12:07.998Z,1007.56
2018-08-07T09:13:08.024Z,1007.59
2018-08-07T09:14:08.038Z,1007.58
2018-08-07T09:15:08.059Z,1007.56
2018-08-07T09:16:08.082Z,1007.57
2018-08-07T09:17:08.104Z,1007.56
2018-08-07T09:18:08.134Z,1007.51
2018-08-07T09:19:08.156Z,1007.54
2018-08-07T09:20:08.174Z,1007.52
2018-08-07T09:21:08.200Z,1007.48
2018-08-07T09:22:08.214Z,1007.50
2018-08-07T09:23:08.237Z,1007.52
2018-08-07T09:24:08.260Z,1007.44
2018-08-07T09:25:08.283Z,1007.47
2018-08-07T09:26:08.392Z,1007.42
2018-08-07T09:27:08.332Z,1007.41
2018-08-07T09:28:08.350Z,1007.38
2018-08-07T09:29:08.373Z,1007.34
2018-08-07T09:30:08.401Z,1007.35
2018-08-07T09:31:08.423Z,1007.34
2018-08-07T09:32:08.447Z,1007.34
2018-08-07T09:33:08.469Z,1007.34
2018-08-07T09:34:08.487Z,1007.33
2018-08-07T09:35:08.509Z,1007.30
2018-08-07T09:36:08.531Z,1007.30
2018-08-07T09:37:08.554Z,1007.27
2018-08-07T09:38:08.587Z,1007.28
2018-08-07T09:39:08.603Z,1007.28
2018-08-07T09:40:08.639Z,1007.25
2018-08-07T09:41:08.650Z,1007.24
2018-08-07T09:42:08.672Z,1007.20
2018-08-07T09:43:08.698Z,1007.19
2018-08-07T09:44:08.717Z,1007.21
2018-08-07T09:45:08.741Z,1007.19
2018-08-07T09:46:08.760Z,1007.15
2018-08-07T09:47:08.782Z,1007.18
2018-08-07T09:48:08.804Z,1007.14
2018-08-07T09:49:08.827Z,1007.16
2018-08-07T09:50:08.857Z,1007.12
2018-08-07T09:51:08.879Z,1007.11
2018-08-07T09:52:08.901Z,1007.07
2018-08-07T09:53:08.922Z,1007.11
2018-08-07T09:54:08.942Z,1007.03
2018-08-07T09:55:08.964Z,1007.06
2018-08-07T09:56:08.995Z,1007.03
2018-08-07T09:57:09.008Z,1007.06
2018-08-07T09:58:09.035Z,1007.03
2018-08-07T09:59:09.060Z,1007.01
2018-08-07T10:00:09.126Z,1006.96
2018-08-07T10:01:09.099Z,1006.96
2018-08-07T10:02:09.127Z,1006.97
2018-08-07T10:03:09.148Z,1006.94
2018-08-07T10:04:09.168Z,1006.90
2018-08-07T10:05:09.211Z,1006.86
2018-08-07T10:06:09.213Z,1006.88
2018-08-07T10:07:09.232Z,1006.90
2018-08-07T10:08:09.254Z,1006.88
2018-08-07T10:09:09.278Z,1006.86
2018-08-07T10:10:09.304Z,1006.84
2018-08-07T10:11:09.327Z,1006.86
2018-08-07T10:12:09.350Z,1006.84
2018-08-07T10:13:09.374Z,1006.90
2018-08-07T10:14:09.390Z,1006.88
2018-08-07T10:15:09.414Z,1006.79
2018-08-07T10:16:09.445Z,1006.74
2018-08-07T10:17:09.465Z,1006.72
2018-08-07T10:18:09.483Z,1006.73
2018-08-07T10:19:09.506Z,1006.70
2018-08-07T10:20:09.529Z,1006.73
2018-08-07T10:21:09.553Z,1006.68
2018-08-07T10:22:09.579Z,1006.70
2018-08-07T10:23:09.634Z,1006.69
2018-08-07T10:24:09.624Z,1006.66
2018-08-07T10:25:09.648Z,1006.66
2018-08-07T10:26:09.668Z,1006.63
2018-08-07T10:27:09.693Z,1006.61
2018-08-07T10:28:09.715Z,1006.60
2018-08-07T10:29:09.738Z,1006.57
2018-08-07T10:30:09.768Z,1006.57
2018-08-07T10:31:09.790Z,1006.53
2018-08-07T10:32:09.809Z,1006.54
2018-08-07T10:33:09.834Z,1006.52
2018-08-07T10:34:09.861Z,1006.48
2018-08-07T10:35:09.964Z,1006.44
2018-08-07T10:36:09.909Z,1006.42
2018-08-07T10:37:09.932Z,1006.37
2018-08-07T10:38:09.952Z,1006.41
2018-08-07T10:39:09.976Z,1006.44
2018-08-07T10:40:10.000Z,1006.41
2018-08-07T10:41:10.102Z,1006.39
2018-08-07T10:42:10.052Z,1006.40
2018-08-07T10:43:10.133Z,1006.35
2018-08-07T10:44:10.135Z,1006.28
2018-08-07T10:45:10.121Z,1006.28
2018-08-07T10:46:10.141Z,1006.21
2018-08-07T10:47:10.163Z,1006.25
2018-08-07T10:48:10.194Z,1006.22
2018-08-07T10:49:10.215Z,1006.20
2018-08-07T10:50:10.233Z,1006.20
2018-08-07T10:51:10.258Z,1006.18
2018-08-07T10:52:10.295Z,1006.17
2018-08-07T10:53:10.303Z,1006.17
2018-08-07T10:54:10.329Z,1006.15
2018-08-07T10:55:10.354Z,1006.17
2018-08-07T10:56:10.375Z,1006.17
2018-08-07T10:57:10.400Z,1006.14
2018-08-07T10:58:10.464Z,1006.15
2018-08-07T10:59:10.440Z,1006.17
2018-08-07T11:00:10.464Z,1006.15
2018-08-07T11:01:10.486Z,1006.14
2018-08-07T11:02:10.514Z,1006.10
2018-08-07T11:03:10.537Z,1006.07
2018-08-07T11:04:10.556Z,1006.02
2018-08-07T11:05:10.584Z,1005.97
2018-08-07T11:06:10.609Z,1005.95
2018-08-07T11:07:10.631Z,1006.00
2018-08-07T11:08:10.651Z,1005.94
2018-08-07T11:09:10.673Z,1005.93
2018-08-07T11:10:10.695Z,1005.90
2018-08-07T11:11:10.715Z,1005.86
2018-08-07T11:12:10.738Z,1005.92
2018-08-07T11:13:10.760Z,1005.87
2018-08-07T11:14:10.787Z,1005.83
2018-08-07T11:15:10.815Z,1005.79
2018-08-07T11:16:10.833Z,1005.68
2018-08-07T11:17:10.856Z,1005.65
2018-08-07T11:18:10.872Z,1005.53
2018-08-07T11:19:10.898Z,1005.54
2018-08-07T11:20:10.924Z,1005.57
2018-08-07T11:21:10.944Z,1005.54
2018-08-07T11:22:10.961Z,1005.51
2018-08-07T11:23:10.984Z,1005.48
2018-08-07T11:24:11.006Z,1005.44
2018-08-07T11:25:11.029Z,1005.35
2018-08-07T11:26:11.056Z,1005.27
2018-08-07T11:27:11.077Z,1005.25
2018-08-07T11:28:11.101Z,1005.16
2018-08-07T11:29:11.120Z,1005.09
2018-08-07T11:30:11.136Z,1005.09
2018-08-07T11:31:11.158Z,1005.01
2018-08-07T11:32:11.182Z,1004.95
2018-08-07T11:33:11.200Z,1004.96
2018-08-07T11:34:11.223Z,1004.97
2018-08-07T11:35:11.245Z,1004.98
2018-08-07T11:36:11.306Z,1004.92
2018-08-07T11:37:11.274Z,1004.92
2018-08-07T11:38:11.298Z,1004.92
2018-08-07T11:39:11.318Z,1004.87
2018-08-07T11:40:11.332Z,1004.85
2018-08-07T11:41:11.349Z,1004.84
2018-08-07T11:42:11.366Z,1004.83
2018-08-07T11:43:11.377Z,1004.80
2018-08-07T11:44:11.394Z,1004.83
2018-08-07T11:45:11.413Z,1004.82
2018-08-07T11:46:11.430Z,1004.83
2018-08-07T11:47:11.444Z,1004.86
2018-08-07T11:48:11.472Z,1004.82
2018-08-07T11:49:11.474Z,1004.75
2018-08-07T11:50:11.484Z,1004.75
2018-08-07T11:51:11.502Z,1004.72
2018-08-07T11:52:11.520Z,1004.70
2018-08-07T11:53:11.531Z,1004.76
2018-08-07T11:54:11.540Z,1004.75
2018-08-07T11:55:11.558Z,1004.67
2018-08-07T11:56:11.606Z,1004.62
2018-08-07T11:57:11.580Z,1004.58
2018-08-07T11:58:11.600Z,1004.63
2018-08-07T11:59:11.613Z,1004.60
2018-08-07T12:00:11.627Z,1004.59
2018-08-07T12:01:11.636Z,1004.57
2018-08-07T12:02:11.645Z,1004.58
2018-08-07T12:03:11.660Z,1004.55
2018-08-07T12:04:11.668Z,1004.57
2018-08-07T12:05:11.681Z,1004.57